sensor_id;sensor_type;location;lat;lon;timestamp;pressure;altitude;pressure_sealevel;temperature
82636;BMP280;72317;37.280;-121.948;2024-02-23T00:04:51;100991.81;;;18.52
82636;BMP280;72317;37.280;-121.948;2024-02-23T00:09:52;100974.09;;;18.71
82636;BMP280;72317;37.280;-121.948;2024-02-23T00:14:52;100932.00;;;18.33
82636;BMP280;72317;37.280;-121.948;2024-02-23T00:19:53;100902.53;;;18.35
82636;BMP280;72317;37.280;-121.948;2024-02-23T00:24:54;100895.22;;;18.32
82636;BMP280;72317;37.280;-121.948;2024-02-23T00:29:55;100851.53;;;18.22
82636;BMP280;72317;37.280;-121.948;2024-02-23T00:34:57;100868.31;;;18.14
82636;BMP280;72317;37.280;-121.948;2024-02-23T00:39:58;100793.09;;;18.18
82636;BMP280;72317;37.280;-121.948;2024-02-23T00:44:58;100680.06;;;17.91
82636;BMP280;72317;37.280;-121.948;2024-02-23T00:49:59;100707.16;;;17.91
82636;BMP280;72317;37.280;-121.948;2024-02-23T00:55:00;100672.06;;;17.81
82636;BMP280;72317;37.280;-121.948;2024-02-23T01:00:01;100564.16;;;17.52
82636;BMP280;72317;37.280;-121.948;2024-02-23T01:05:02;100481.78;;;17.50
82636;BMP280;72317;37.280;-121.948;2024-02-23T01:10:04;100204.19;;;17.38
82636;BMP280;72317;37.280;-121.948;2024-02-23T01:15:05;99985.84;;;17.28
82636;BMP280;72317;37.280;-121.948;2024-02-23T01:20:06;99799.47;;;16.97
82636;BMP280;72317;37.280;-121.948;2024-02-23T01:25:07;99478.34;;;16.82
82636;BMP280;72317;37.280;-121.948;2024-02-23T01:30:28;99027.78;;;16.72
82636;BMP280;72317;37.280;-121.948;2024-02-23T01:35:29;98958.72;;;16.49
82636;BMP280;72317;37.280;-121.948;2024-02-23T01:40:29;98877.31;;;16.47
82636;BMP280;72317;37.280;-121.948;2024-02-23T01:45:31;98783.13;;;16.36
82636;BMP280;72317;37.280;-121.948;2024-02-23T01:50:32;98613.19;;;16.20
82636;BMP280;72317;37.280;-121.948;2024-02-23T01:55:33;98508.44;;;15.96
82636;BMP280;72317;37.280;-121.948;2024-02-23T02:00:35;98421.84;;;15.91
82636;BMP280;72317;37.280;-121.948;2024-02-23T02:05:37;98259.78;;;15.76
82636;BMP280;72317;37.280;-121.948;2024-02-23T02:10:38;98082.66;;;15.55
82636;BMP280;72317;37.280;-121.948;2024-02-23T02:15:38;97958.03;;;15.56
82636;BMP280;72317;37.280;-121.948;2024-02-23T02:20:53;97901.69;;;15.34
82636;BMP280;72317;37.280;-121.948;2024-02-23T02:25:58;97892.34;;;15.21
82636;BMP280;72317;37.280;-121.948;2024-02-23T02:30:59;97847.38;;;15.27
82636;BMP280;72317;37.280;-121.948;2024-02-23T02:36:00;97805.03;;;15.18
82636;BMP280;72317;37.280;-121.948;2024-02-23T02:41:01;97934.34;;;15.12
82636;BMP280;72317;37.280;-121.948;2024-02-23T02:46:01;97940.25;;;15.02
82636;BMP280;72317;37.280;-121.948;2024-02-23T02:51:02;98007.34;;;15.00
82636;BMP280;72317;37.280;-121.948;2024-02-23T02:56:06;98027.78;;;14.82
82636;BMP280;72317;37.280;-121.948;2024-02-23T03:01:07;98097.88;;;14.73
82636;BMP280;72317;37.280;-121.948;2024-02-23T03:06:08;98173.03;;;14.71
82636;BMP280;72317;37.280;-121.948;2024-02-23T03:11:09;98221.97;;;14.61
82636;BMP280;72317;37.280;-121.948;2024-02-23T03:16:20;98250.06;;;14.41
82636;BMP280;72317;37.280;-121.948;2024-02-23T03:21:20;98313.53;;;14.42
82636;BMP280;72317;37.280;-121.948;2024-02-23T03:26:21;98344.31;;;14.32
82636;BMP280;72317;37.280;-121.948;2024-02-23T03:31:22;98375.56;;;14.20
82636;BMP280;72317;37.280;-121.948;2024-02-23T03:36:23;98437.66;;;14.26
82636;BMP280;72317;37.280;-121.948;2024-02-23T03:41:24;98411.72;;;14.19
82636;BMP280;72317;37.280;-121.948;2024-02-23T03:46:24;98504.59;;;13.93
82636;BMP280;72317;37.280;-121.948;2024-02-23T03:51:25;98627.78;;;13.76
82636;BMP280;72317;37.280;-121.948;2024-02-23T03:56:26;98704.66;;;13.65
82636;BMP280;72317;37.280;-121.948;2024-02-23T04:01:27;98837.44;;;13.58
82636;BMP280;72317;37.280;-121.948;2024-02-23T04:06:27;98880.69;;;13.51
82636;BMP280;72317;37.280;-121.948;2024-02-23T04:11:28;98911.38;;;13.37
82636;BMP280;72317;37.280;-121.948;2024-02-23T04:16:29;98927.34;;;13.28
82636;BMP280;72317;37.280;-121.948;2024-02-23T04:21:30;99010.03;;;13.24
82636;BMP280;72317;37.280;-121.948;2024-02-23T04:26:30;99154.63;;;13.16
82636;BMP280;72317;37.280;-121.948;2024-02-23T04:31:31;99220.69;;;12.97
82636;BMP280;72317;37.280;-121.948;2024-02-23T04:36:32;99276.31;;;13.00
82636;BMP280;72317;37.280;-121.948;2024-02-23T04:41:33;99468.25;;;12.80
82636;BMP280;72317;37.280;-121.948;2024-02-23T04:46:34;99642.19;;;12.38
82636;BMP280;72317;37.280;-121.948;2024-02-23T04:51:34;99775.38;;;12.39
82636;BMP280;72317;37.280;-121.948;2024-02-23T04:56:35;99810.25;;;12.46
82636;BMP280;72317;37.280;-121.948;2024-02-23T05:01:37;99876.03;;;12.13
82636;BMP280;72317;37.280;-121.948;2024-02-23T05:06:38;99910.13;;;12.30
82636;BMP280;72317;37.280;-121.948;2024-02-23T05:11:38;99914.34;;;12.28
82636;BMP280;72317;37.280;-121.948;2024-02-23T05:16:39;99973.13;;;11.97
82636;BMP280;72317;37.280;-121.948;2024-02-23T05:21:40;100089.34;;;11.98
82636;BMP280;72317;37.280;-121.948;2024-02-23T05:26:41;100035.22;;;12.17
82636;BMP280;72317;37.280;-121.948;2024-02-23T05:31:48;100002.28;;;11.99
82636;BMP280;72317;37.280;-121.948;2024-02-23T05:36:49;99999.19;;;12.11
82636;BMP280;72317;37.280;-121.948;2024-02-23T05:41:50;100055.59;;;12.00
82636;BMP280;72317;37.280;-121.948;2024-02-23T05:46:51;100172.53;;;11.84
82636;BMP280;72317;37.280;-121.948;2024-02-23T05:51:52;100346.97;;;11.69
82636;BMP280;72317;37.280;-121.948;2024-02-23T05:56:52;100345.91;;;11.88
82636;BMP280;72317;37.280;-121.948;2024-02-23T06:01:53;100400.38;;;11.89
82636;BMP280;72317;37.280;-121.948;2024-02-23T06:06:57;100277.66;;;11.96
82636;BMP280;72317;37.280;-121.948;2024-02-23T06:11:58;100254.91;;;11.65
82636;BMP280;72317;37.280;-121.948;2024-02-23T06:16:58;100310.16;;;11.70
82636;BMP280;72317;37.280;-121.948;2024-02-23T06:21:59;100297.91;;;11.72
82636;BMP280;72317;37.280;-121.948;2024-02-23T06:27:00;100420.50;;;11.61
82636;BMP280;72317;37.280;-121.948;2024-02-23T06:32:01;100518.19;;;11.53
82636;BMP280;72317;37.280;-121.948;2024-02-23T06:37:01;100508.59;;;11.52
82636;BMP280;72317;37.280;-121.948;2024-02-23T06:42:02;100518.16;;;11.49
82636;BMP280;72317;37.280;-121.948;2024-02-23T06:47:03;100575.59;;;11.45
82636;BMP280;72317;37.280;-121.948;2024-02-23T06:52:04;100564.09;;;11.41
82636;BMP280;72317;37.280;-121.948;2024-02-23T06:57:05;100627.19;;;11.28
82636;BMP280;72317;37.280;-121.948;2024-02-23T07:02:06;100645.41;;;11.15
82636;BMP280;72317;37.280;-121.948;2024-02-23T07:07:07;100696.50;;;11.26
82636;BMP280;72317;37.280;-121.948;2024-02-23T07:12:07;100703.88;;;11.06
82636;BMP280;72317;37.280;-121.948;2024-02-23T07:17:08;100697.56;;;11.21
82636;BMP280;72317;37.280;-121.948;2024-02-23T07:22:09;100741.13;;;11.11
82636;BMP280;72317;37.280;-121.948;2024-02-23T07:27:10;100723.75;;;11.01
82636;BMP280;72317;37.280;-121.948;2024-02-23T07:32:10;100729.81;;;10.98
82636;BMP280;72317;37.280;-121.948;2024-02-23T07:37:11;100782.63;;;10.94
82636;BMP280;72317;37.280;-121.948;2024-02-23T07:42:12;100779.34;;;10.81
82636;BMP280;72317;37.280;-121.948;2024-02-23T07:47:13;100789.84;;;10.90
82636;BMP280;72317;37.280;-121.948;2024-02-23T07:52:14;100753.94;;;10.98
82636;BMP280;72317;37.280;-121.948;2024-02-23T07:57:15;100749.03;;;10.77
82636;BMP280;72317;37.280;-121.948;2024-02-23T08:02:15;100856.38;;;10.65
82636;BMP280;72317;37.280;-121.948;2024-02-23T08:07:16;100951.41;;;10.68
82636;BMP280;72317;37.280;-121.948;2024-02-23T08:12:17;100991.03;;;10.58
82636;BMP280;72317;37.280;-121.948;2024-02-23T08:17:18;101070.03;;;10.29
82636;BMP280;72317;37.280;-121.948;2024-02-23T08:22:18;101173.75;;;10.32
82636;BMP280;72317;37.280;-121.948;2024-02-23T08:27:19;101229.94;;;10.01
82636;BMP280;72317;37.280;-121.948;2024-02-23T08:32:20;101273.69;;;10.05
82636;BMP280;72317;37.280;-121.948;2024-02-23T08:37:21;101300.81;;;10.03
82636;BMP280;72317;37.280;-121.948;2024-02-23T08:42:21;101296.34;;;9.95
82636;BMP280;72317;37.280;-121.948;2024-02-23T08:47:22;101271.72;;;10.18
82636;BMP280;72317;37.280;-121.948;2024-02-23T08:52:23;101167.00;;;10.23
82636;BMP280;72317;37.280;-121.948;2024-02-23T08:57:24;101123.31;;;10.03
82636;BMP280;72317;37.280;-121.948;2024-02-23T09:02:25;101083.03;;;10.15
82636;BMP280;72317;37.280;-121.948;2024-02-23T09:07:26;101041.31;;;10.14
82636;BMP280;72317;37.280;-121.948;2024-02-23T09:12:26;101019.66;;;10.03
82636;BMP280;72317;37.280;-121.948;2024-02-23T09:17:27;101063.00;;;9.93
82636;BMP280;72317;37.280;-121.948;2024-02-23T09:22:28;101114.66;;;9.94
82636;BMP280;72317;37.280;-121.948;2024-02-23T09:27:29;101108.78;;;10.04
82636;BMP280;72317;37.280;-121.948;2024-02-23T09:32:29;101036.72;;;10.15
82636;BMP280;72317;37.280;-121.948;2024-02-23T09:37:30;100965.19;;;10.15
82636;BMP280;72317;37.280;-121.948;2024-02-23T09:42:32;100966.09;;;10.03
82636;BMP280;72317;37.280;-121.948;2024-02-23T09:47:34;101056.00;;;9.89
82636;BMP280;72317;37.280;-121.948;2024-02-23T09:52:34;101084.44;;;9.93
82636;BMP280;72317;37.280;-121.948;2024-02-23T09:57:36;101115.78;;;9.93
82636;BMP280;72317;37.280;-121.948;2024-02-23T10:02:37;101114.03;;;9.85
82636;BMP280;72317;37.280;-121.948;2024-02-23T10:07:40;101123.56;;;9.70
82636;BMP280;72317;37.280;-121.948;2024-02-23T10:12:41;101160.69;;;9.71
82636;BMP280;72317;37.280;-121.948;2024-02-23T10:17:41;101140.81;;;9.72
82636;BMP280;72317;37.280;-121.948;2024-02-23T10:22:42;101177.91;;;9.58
82636;BMP280;72317;37.280;-121.948;2024-02-23T10:27:43;101173.81;;;9.61
82636;BMP280;72317;37.280;-121.948;2024-02-23T10:32:45;101190.50;;;9.58
82636;BMP280;72317;37.280;-121.948;2024-02-23T10:37:49;101215.25;;;9.55
82636;BMP280;72317;37.280;-121.948;2024-02-23T10:42:50;101233.31;;;9.58
82636;BMP280;72317;37.280;-121.948;2024-02-23T10:47:52;101228.09;;;9.49
82636;BMP280;72317;37.280;-121.948;2024-02-23T10:52:54;101224.22;;;9.46
82636;BMP280;72317;37.280;-121.948;2024-02-23T10:57:56;101266.69;;;9.24
82636;BMP280;72317;37.280;-121.948;2024-02-23T11:02:59;101263.97;;;9.36
82636;BMP280;72317;37.280;-121.948;2024-02-23T11:08:01;101254.66;;;9.42
82636;BMP280;72317;37.280;-121.948;2024-02-23T11:13:01;101270.03;;;9.08
82636;BMP280;72317;37.280;-121.948;2024-02-23T11:18:02;101286.28;;;9.28
82636;BMP280;72317;37.280;-121.948;2024-02-23T11:23:13;101272.69;;;9.21
82636;BMP280;72317;37.280;-121.948;2024-02-23T11:28:24;101298.31;;;9.22
82636;BMP280;72317;37.280;-121.948;2024-02-23T11:33:38;101342.16;;;8.84
82636;BMP280;72317;37.280;-121.948;2024-02-23T11:38:39;101453.28;;;8.85
82636;BMP280;72317;37.280;-121.948;2024-02-23T11:43:41;101476.69;;;8.88
82636;BMP280;72317;37.280;-121.948;2024-02-23T11:48:42;101450.53;;;8.94
82636;BMP280;72317;37.280;-121.948;2024-02-23T11:53:43;101412.91;;;8.99
82636;BMP280;72317;37.280;-121.948;2024-02-23T11:58:44;101366.38;;;9.12
82636;BMP280;72317;37.280;-121.948;2024-02-23T12:03:45;101328.50;;;9.10
82636;BMP280;72317;37.280;-121.948;2024-02-23T12:08:46;101313.00;;;9.03
82636;BMP280;72317;37.280;-121.948;2024-02-23T12:13:46;101298.28;;;8.97
82636;BMP280;72317;37.280;-121.948;2024-02-23T12:18:55;101256.56;;;9.05
82636;BMP280;72317;37.280;-121.948;2024-02-23T12:23:56;101256.38;;;8.77
82636;BMP280;72317;37.280;-121.948;2024-02-23T12:29:01;101297.63;;;8.55
82636;BMP280;72317;37.280;-121.948;2024-02-23T12:34:02;101360.75;;;8.59
82636;BMP280;72317;37.280;-121.948;2024-02-23T12:39:03;101342.47;;;8.82
82636;BMP280;72317;37.280;-121.948;2024-02-23T12:44:03;101317.09;;;8.88
82636;BMP280;72317;37.280;-121.948;2024-02-23T12:49:04;101297.13;;;8.74
82636;BMP280;72317;37.280;-121.948;2024-02-23T12:54:05;101311.97;;;8.50
82636;BMP280;72317;37.280;-121.948;2024-02-23T12:59:06;101327.50;;;8.69
82636;BMP280;72317;37.280;-121.948;2024-02-23T13:04:07;101318.75;;;8.81
82636;BMP280;72317;37.280;-121.948;2024-02-23T13:09:07;101337.63;;;8.64
82636;BMP280;72317;37.280;-121.948;2024-02-23T13:14:08;101360.75;;;8.59
82636;BMP280;72317;37.280;-121.948;2024-02-23T13:19:09;101359.81;;;8.76
82636;BMP280;72317;37.280;-121.948;2024-02-23T13:24:10;101332.31;;;8.76
82636;BMP280;72317;37.280;-121.948;2024-02-23T13:29:10;101297.91;;;8.74
82636;BMP280;72317;37.280;-121.948;2024-02-23T13:34:11;101284.13;;;8.72
82636;BMP280;72317;37.280;-121.948;2024-02-23T13:39:12;101207.50;;;8.64
82636;BMP280;72317;37.280;-121.948;2024-02-23T13:44:13;101160.69;;;8.46
82636;BMP280;72317;37.280;-121.948;2024-02-23T13:49:13;101192.22;;;8.52
82636;BMP280;72317;37.280;-121.948;2024-02-23T13:54:14;101220.13;;;8.10
82636;BMP280;72317;37.280;-121.948;2024-02-23T13:59:15;101281.25;;;8.44
82636;BMP280;72317;37.280;-121.948;2024-02-23T14:04:17;101289.91;;;8.74
82636;BMP280;72317;37.280;-121.948;2024-02-23T14:09:17;101239.38;;;8.81
82636;BMP280;72317;37.280;-121.948;2024-02-23T14:14:19;101180.88;;;8.68
82636;BMP280;72317;37.280;-121.948;2024-02-23T14:19:20;101222.91;;;8.46
82636;BMP280;72317;37.280;-121.948;2024-02-23T14:24:20;101296.56;;;8.35
82636;BMP280;72317;37.280;-121.948;2024-02-23T14:29:21;101327.47;;;8.36
82636;BMP280;72317;37.280;-121.948;2024-02-23T14:34:22;101313.72;;;8.46
82636;BMP280;72317;37.280;-121.948;2024-02-23T14:39:23;101286.59;;;8.56
82636;BMP280;72317;37.280;-121.948;2024-02-23T14:44:24;101277.25;;;8.50
82636;BMP280;72317;37.280;-121.948;2024-02-23T14:49:25;101298.88;;;8.37
82636;BMP280;72317;37.280;-121.948;2024-02-23T14:54:26;101329.63;;;8.43
82636;BMP280;72317;37.280;-121.948;2024-02-23T14:59:26;101333.47;;;8.54
82636;BMP280;72317;37.280;-121.948;2024-02-23T15:04:27;101295.44;;;8.69
82636;BMP280;72317;37.280;-121.948;2024-02-23T15:09:28;101235.34;;;8.87
82636;BMP280;72317;37.280;-121.948;2024-02-23T15:14:29;101186.47;;;8.99
82636;BMP280;72317;37.280;-121.948;2024-02-23T15:19:30;101112.00;;;9.26
82636;BMP280;72317;37.280;-121.948;2024-02-23T15:24:30;101000.44;;;9.38
82636;BMP280;72317;37.280;-121.948;2024-02-23T15:29:31;100862.63;;;9.44
82636;BMP280;72317;37.280;-121.948;2024-02-23T15:34:32;100772.72;;;9.56
82636;BMP280;72317;37.280;-121.948;2024-02-23T15:39:33;100739.13;;;9.58
82636;BMP280;72317;37.280;-121.948;2024-02-23T15:44:33;100687.44;;;9.54
82636;BMP280;72317;37.280;-121.948;2024-02-23T15:49:34;100647.66;;;9.53
82636;BMP280;72317;37.280;-121.948;2024-02-23T15:54:35;100567.25;;;9.84
82636;BMP280;72317;37.280;-121.948;2024-02-23T15:59:36;100509.56;;;9.87
82636;BMP280;72317;37.280;-121.948;2024-02-23T16:04:36;100442.69;;;10.13
82636;BMP280;72317;37.280;-121.948;2024-02-23T16:09:37;100386.00;;;10.38
82636;BMP280;72317;37.280;-121.948;2024-02-23T16:14:38;100250.47;;;10.70
82636;BMP280;72317;37.280;-121.948;2024-02-23T16:19:40;100234.44;;;10.77
82636;BMP280;72317;37.280;-121.948;2024-02-23T16:24:40;100207.38;;;10.93
82636;BMP280;72317;37.280;-121.948;2024-02-23T16:29:41;100176.75;;;10.94
82636;BMP280;72317;37.280;-121.948;2024-02-23T16:34:42;100047.03;;;11.24
82636;BMP280;72317;37.280;-121.948;2024-02-23T16:39:43;99846.25;;;11.61
82636;BMP280;72317;37.280;-121.948;2024-02-23T16:44:43;99663.66;;;11.90
82636;BMP280;72317;37.280;-121.948;2024-02-23T16:49:44;99562.81;;;11.92
82636;BMP280;72317;37.280;-121.948;2024-02-23T16:54:45;99552.78;;;12.00
82636;BMP280;72317;37.280;-121.948;2024-02-23T16:59:46;99406.06;;;12.20
82636;BMP280;72317;37.280;-121.948;2024-02-23T17:04:46;99206.97;;;12.45
82636;BMP280;72317;37.280;-121.948;2024-02-23T17:09:47;99144.44;;;12.21
82636;BMP280;72317;37.280;-121.948;2024-02-23T17:14:48;98948.53;;;12.74
82636;BMP280;72317;37.280;-121.948;2024-02-23T17:19:49;98850.28;;;12.73
82636;BMP280;72317;37.280;-121.948;2024-02-23T17:24:50;98746.00;;;12.51
82636;BMP280;72317;37.280;-121.948;2024-02-23T17:29:51;98651.06;;;13.16
82636;BMP280;72317;37.280;-121.948;2024-02-23T17:34:52;98378.31;;;13.29
82636;BMP280;72317;37.280;-121.948;2024-02-23T17:39:56;98399.97;;;13.00
82636;BMP280;72317;37.280;-121.948;2024-02-23T17:44:57;98497.03;;;13.53
82636;BMP280;72317;37.280;-121.948;2024-02-23T17:49:58;98284.56;;;13.63
82636;BMP280;72317;37.280;-121.948;2024-02-23T17:54:59;98298.19;;;13.90
82636;BMP280;72317;37.280;-121.948;2024-02-23T17:59:59;98293.53;;;13.59
82636;BMP280;72317;37.280;-121.948;2024-02-23T18:05:00;98253.66;;;13.98
82636;BMP280;72317;37.280;-121.948;2024-02-23T18:10:02;98112.09;;;14.28
82636;BMP280;72317;37.280;-121.948;2024-02-23T18:15:03;98119.13;;;14.16
82636;BMP280;72317;37.280;-121.948;2024-02-23T18:20:04;98195.63;;;13.88
82636;BMP280;72317;37.280;-121.948;2024-02-23T18:25:06;98098.19;;;14.30
82636;BMP280;72317;37.280;-121.948;2024-02-23T18:30:07;98112.56;;;14.27
82636;BMP280;72317;37.280;-121.948;2024-02-23T18:35:08;98109.69;;;14.76
82636;BMP280;72317;37.280;-121.948;2024-02-23T18:40:10;98292.47;;;14.50
82636;BMP280;72317;37.280;-121.948;2024-02-23T18:45:11;98425.00;;;15.25
82636;BMP280;72317;37.280;-121.948;2024-02-23T18:50:12;98567.97;;;15.74
82636;BMP280;72317;37.280;-121.948;2024-02-23T18:55:13;98540.84;;;15.29
82636;BMP280;72317;37.280;-121.948;2024-02-23T19:00:14;98674.84;;;16.12
82636;BMP280;72317;37.280;-121.948;2024-02-23T19:05:15;99311.25;;;18.22
82636;BMP280;72317;37.280;-121.948;2024-02-23T19:10:16;99501.91;;;20.27
82636;BMP280;72317;37.280;-121.948;2024-02-23T19:15:16;99637.91;;;18.83
82636;BMP280;72317;37.280;-121.948;2024-02-23T19:20:17;100048.09;;;21.68
82636;BMP280;72317;37.280;-121.948;2024-02-23T19:25:18;100848.00;;;24.28
82636;BMP280;72317;37.280;-121.948;2024-02-23T19:30:19;100923.56;;;22.02
82636;BMP280;72317;37.280;-121.948;2024-02-23T19:35:20;100732.59;;;21.17
82636;BMP280;72317;37.280;-121.948;2024-02-23T19:40:20;100792.28;;;21.75
82636;BMP280;72317;37.280;-121.948;2024-02-23T19:45:21;100854.03;;;19.79
82636;BMP280;72317;37.280;-121.948;2024-02-23T19:50:22;100751.84;;;20.97
82636;BMP280;72317;37.280;-121.948;2024-02-23T19:55:23;100795.13;;;21.84
82636;BMP280;72317;37.280;-121.948;2024-02-23T20:00:24;100847.63;;;23.31
82636;BMP280;72317;37.280;-121.948;2024-02-23T20:05:24;100861.09;;;22.73
82636;BMP280;72317;37.280;-121.948;2024-02-23T20:10:25;100941.75;;;22.31
82636;BMP280;72317;37.280;-121.948;2024-02-23T20:15:26;100842.28;;;21.59
82636;BMP280;72317;37.280;-121.948;2024-02-23T20:20:27;100820.91;;;21.45
82636;BMP280;72317;37.280;-121.948;2024-02-23T20:25:28;100789.88;;;20.14
82636;BMP280;72317;37.280;-121.948;2024-02-23T20:30:28;100779.03;;;20.72
82636;BMP280;72317;37.280;-121.948;2024-02-23T20:35:29;100890.59;;;20.59
82636;BMP280;72317;37.280;-121.948;2024-02-23T20:40:50;100884.53;;;20.06
82636;BMP280;72317;37.280;-121.948;2024-02-23T20:45:51;100850.19;;;20.29
82636;BMP280;72317;37.280;-121.948;2024-02-23T20:50:52;100831.69;;;20.52
82636;BMP280;72317;37.280;-121.948;2024-02-23T20:55:52;100806.31;;;20.84
82636;BMP280;72317;37.280;-121.948;2024-02-23T21:00:54;100831.56;;;20.11
82636;BMP280;72317;37.280;-121.948;2024-02-23T21:05:55;100842.41;;;20.43
82636;BMP280;72317;37.280;-121.948;2024-02-23T21:10:56;100787.66;;;20.70
82636;BMP280;72317;37.280;-121.948;2024-02-23T21:15:57;100852.47;;;19.98
82636;BMP280;72317;37.280;-121.948;2024-02-23T21:20:57;100803.53;;;20.43
82636;BMP280;72317;37.280;-121.948;2024-02-23T21:25:58;100766.69;;;20.96
82636;BMP280;72317;37.280;-121.948;2024-02-23T21:30:59;100774.06;;;20.83
82636;BMP280;72317;37.280;-121.948;2024-02-23T21:36:00;100779.06;;;20.84
82636;BMP280;72317;37.280;-121.948;2024-02-23T21:41:00;100789.50;;;20.44
82636;BMP280;72317;37.280;-121.948;2024-02-23T21:46:01;100750.19;;;20.45
82636;BMP280;72317;37.280;-121.948;2024-02-23T21:51:02;100739.16;;;20.36
82636;BMP280;72317;37.280;-121.948;2024-02-23T21:56:04;100748.91;;;20.91
82636;BMP280;72317;37.280;-121.948;2024-02-23T22:01:05;100755.31;;;20.56
82636;BMP280;72317;37.280;-121.948;2024-02-23T22:06:07;100747.22;;;20.40
82636;BMP280;72317;37.280;-121.948;2024-02-23T22:11:08;100723.97;;;20.22
82636;BMP280;72317;37.280;-121.948;2024-02-23T22:16:09;100733.03;;;20.03
82636;BMP280;72317;37.280;-121.948;2024-02-23T22:21:10;100745.63;;;19.65
82636;BMP280;72317;37.280;-121.948;2024-02-23T22:26:10;100723.09;;;19.97
82636;BMP280;72317;37.280;-121.948;2024-02-23T22:31:11;100747.06;;;20.02
82636;BMP280;72317;37.280;-121.948;2024-02-23T22:36:12;100731.06;;;20.04
82636;BMP280;72317;37.280;-121.948;2024-02-23T22:41:13;100703.84;;;20.20
82636;BMP280;72317;37.280;-121.948;2024-02-23T22:46:14;100698.28;;;19.95
82636;BMP280;72317;37.280;-121.948;2024-02-23T22:51:14;100728.69;;;20.35
82636;BMP280;72317;37.280;-121.948;2024-02-23T22:56:15;100709.50;;;19.80
82636;BMP280;72317;37.280;-121.948;2024-02-23T23:01:16;100718.91;;;19.43
82636;BMP280;72317;37.280;-121.948;2024-02-23T23:06:17;100694.31;;;19.67
82636;BMP280;72317;37.280;-121.948;2024-02-23T23:11:17;100720.81;;;19.63
82636;BMP280;72317;37.280;-121.948;2024-02-23T23:16:18;100689.19;;;19.52
82636;BMP280;72317;37.280;-121.948;2024-02-23T23:21:19;100666.34;;;19.82
82636;BMP280;72317;37.280;-121.948;2024-02-23T23:26:20;100678.50;;;19.78
82636;BMP280;72317;37.280;-121.948;2024-02-23T23:31:21;100651.25;;;20.10
82636;BMP280;72317;37.280;-121.948;2024-02-23T23:36:21;100704.31;;;19.70
82636;BMP280;72317;37.280;-121.948;2024-02-23T23:41:22;100660.13;;;19.98
82636;BMP280;72317;37.280;-121.948;2024-02-23T23:46:23;100682.56;;;19.86
82636;BMP280;72317;37.280;-121.948;2024-02-23T23:51:24;100684.19;;;19.83
82636;BMP280;72317;37.280;-121.948;2024-02-23T23:56:25;100659.72;;;19.83
